Time;durP1;ratioP1;P1;durP2;ratioP2;P2;SDS_P1;SDS_P2;PMS_P1;PMS_P2;Temp;Humidity;BMP_temperature;BMP_pressure;BME280_temperature;BME280_humidity;BME280_pressure;Samples;Min_cycle;Max_cycle;Signal;HPM_P1;HPM_P2
2023/05/04 00:01:39;;;;;;;7.68;2.38;;;;;;;4.83;40.75;96089.75;4913121;29;20148;-74
2023/05/04 00:04:05;;;;;;;4.00;2.45;;;;;;;4.45;41.68;96088.53;4926839;29;20176;-75
2023/05/04 00:06:30;;;;;;;4.97;2.38;;;;;;;4.92;40.90;96084.66;4924366;29;20454;-74
2023/05/04 00:08:56;;;;;;;3.25;2.30;;;;;;;4.94;40.83;96083.56;4912224;29;20055;-74
2023/05/04 00:11:21;;;;;;;3.28;2.25;;;;;;;4.98;40.34;96081.50;4910697;29;20090;-74
2023/05/04 00:13:47;;;;;;;3.03;2.30;;;;;;;5.04;42.40;96075.69;4918493;29;20342;-74
2023/05/04 00:16:12;;;;;;;5.78;2.70;;;;;;;4.90;41.68;96068.13;4917518;29;20035;-74
2023/05/04 00:18:38;;;;;;;9.38;2.47;;;;;;;4.91;41.11;96061.88;4915423;29;20245;-74
2023/05/04 00:21:03;;;;;;;5.35;2.75;;;;;;;5.06;42.33;96065.88;4927635;29;20039;-75
2023/05/04 00:23:29;;;;;;;10.23;2.60;;;;;;;4.93;41.49;96066.06;4926053;29;20118;-74
2023/05/04 00:25:54;;;;;;;3.20;2.40;;;;;;;4.60;41.64;96067.13;4926285;29;20064;-74
2023/05/04 00:28:19;;;;;;;7.57;2.30;;;;;;;4.27;42.40;96060.13;4937131;29;20036;-74
2023/05/04 00:30:45;;;;;;;7.38;2.80;;;;;;;4.71;41.97;96060.00;4925394;29;20056;-74
2023/05/04 00:33:10;;;;;;;5.22;2.78;;;;;;;4.83;43.26;96057.28;4932301;29;20070;-74
2023/05/04 00:35:36;;;;;;;4.63;2.70;;;;;;;4.81;41.40;96053.91;4930152;29;20312;-74
2023/05/04 00:38:02;;;;;;;2.83;2.50;;;;;;;4.76;42.53;96056.13;4935911;29;20536;-74
2023/05/04 00:40:27;;;;;;;3.97;2.60;;;;;;;4.71;41.80;96062.63;4936298;29;20122;-74
2023/05/04 00:42:53;;;;;;;5.47;2.92;;;;;;;4.77;41.55;96052.50;4928181;29;20551;-74
2023/05/04 00:45:19;;;;;;;4.20;2.33;;;;;;;4.81;41.68;96046.84;4930754;29;20104;-74
2023/05/04 00:47:44;;;;;;;4.80;2.40;;;;;;;4.63;42.92;96051.88;4917191;29;20039;-74
2023/05/04 00:50:10;;;;;;;6.15;2.60;;;;;;;4.81;42.46;96054.78;4907981;29;20040;-74
2023/05/04 00:52:35;;;;;;;2.65;2.40;;;;;;;5.05;42.35;96047.50;4915189;29;20090;-74
2023/05/04 00:55:01;;;;;;;4.00;2.40;;;;;;;5.14;42.22;96036.16;4914566;29;20114;-74
2023/05/04 00:57:29;;;;;;;7.15;2.67;;;;;;;5.12;41.46;96032.00;4932896;29;20531;-74
2023/05/04 00:59:55;;;;;;;3.13;2.50;;;;;;;5.10;42.18;96040.03;4908279;29;20568;-74
2023/05/04 01:02:20;;;;;;;7.25;2.78;;;;;;;5.20;41.21;96033.00;4945753;23;20081;-74
2023/05/04 01:04:45;;;;;;;5.22;2.65;;;;;;;5.10;42.26;96024.22;4963184;28;20043;-74
2023/05/04 01:07:52;;;;;;;4.65;2.60;;;;;;;5.01;41.70;96031.09;4950462;28;20031;-74
2023/05/04 01:10:40;;;;;;;4.35;2.75;;;;;;;4.83;42.26;96023.78;4952751;28;20022;-74
2023/05/04 01:13:11;;;;;;;6.30;2.80;;;;;;;5.22;43.16;96028.44;4957450;28;20069;-74
2023/05/04 01:15:36;;;;;;;3.50;2.50;;;;;;;5.39;41.09;96027.91;4932902;28;20026;-74
2023/05/04 01:18:02;;;;;;;4.50;2.80;;;;;;;5.54;40.97;96031.03;4969199;28;20811;-74
2023/05/04 01:20:27;;;;;;;5.07;2.80;;;;;;;5.56;41.22;96026.44;4966912;28;20027;-74
2023/05/04 01:22:53;;;;;;;6.65;2.67;;;;;;;5.74;41.01;96029.22;4969296;28;20274;-74
2023/05/04 01:28:32;;;;;;;6.65;2.60;;;;;;;5.90;39.93;96026.06;5248908;23;20249;-72
2023/05/04 01:30:58;;;;;;;6.55;3.00;;;;;;;5.96;40.02;96024.66;4958588;28;20074;-72
2023/05/04 01:33:23;;;;;;;9.85;2.95;;;;;;;5.94;39.85;96023.97;4961988;28;20469;-72
2023/05/04 01:35:49;;;;;;;7.22;3.10;;;;;;;6.02;39.47;96020.63;4960757;28;20057;-72
2023/05/04 01:38:17;;;;;;;8.50;2.70;;;;;;;6.07;39.11;96019.25;4944405;28;20039;-72
2023/05/04 01:40:43;;;;;;;6.10;2.90;;;;;;;6.22;38.67;96022.28;4959672;28;20395;-72
2023/05/04 01:43:08;;;;;;;6.45;2.70;;;;;;;6.30;38.78;96018.97;4983060;28;20108;-72
2023/05/04 01:45:34;;;;;;;5.55;2.67;;;;;;;6.32;38.97;96021.47;4983839;28;20057;-72
2023/05/04 01:47:59;;;;;;;5.85;2.60;;;;;;;6.30;38.59;96024.25;4984180;28;20582;-72
2023/05/04 01:50:24;;;;;;;3.58;2.70;;;;;;;6.11;40.19;96019.78;4981257;28;20042;-72
2023/05/04 01:52:50;;;;;;;6.22;2.90;;;;;;;6.35;38.75;96016.72;4983570;28;20097;-72
2023/05/04 01:55:18;;;;;;;5.57;2.67;;;;;;;6.56;38.36;96020.19;4987578;28;20047;-72
2023/05/04 01:57:44;;;;;;;4.55;2.60;;;;;;;6.61;37.92;96017.94;4982537;28;20069;-72
2023/05/04 02:00:10;;;;;;;4.93;2.95;;;;;;;6.59;38.16;96011.94;4990696;28;20226;-72
2023/05/04 02:02:36;;;;;;;6.05;2.88;;;;;;;6.64;37.97;96012.38;4982986;28;20090;-72
2023/05/04 02:05:01;;;;;;;8.57;3.00;;;;;;;6.65;38.11;96003.44;4959524;28;20064;-72
2023/05/04 02:07:27;;;;;;;7.13;3.30;;;;;;;6.50;38.17;96008.38;4945126;28;20058;-72
2023/05/04 02:09:52;;;;;;;8.13;3.47;;;;;;;6.52;38.65;96006.41;4957694;28;20061;-72
2023/05/04 02:12:17;;;;;;;10.90;3.20;;;;;;;6.46;39.39;96007.78;4976506;28;20045;-72
2023/05/04 02:14:43;;;;;;;10.30;3.28;;;;;;;6.50;38.62;96001.25;4979523;28;20050;-72
2023/05/04 02:17:08;;;;;;;8.23;3.03;;;;;;;6.47;38.74;96009.44;4938299;28;20161;-72
2023/05/04 02:19:34;;;;;;;5.32;2.90;;;;;;;6.58;38.78;96008.50;4960307;28;20033;-71
2023/05/04 02:21:59;;;;;;;7.53;3.10;;;;;;;6.67;38.37;96008.59;4977813;28;20079;-71
2023/05/04 02:24:25;;;;;;;6.50;2.75;;;;;;;6.59;38.26;96006.66;4984755;28;20067;-72
2023/05/04 02:26:50;;;;;;;7.40;2.70;;;;;;;6.55;38.17;96008.78;4958756;28;20034;-72
2023/05/04 02:29:16;;;;;;;6.35;2.80;;;;;;;6.79;37.93;96006.59;4957779;28;20077;-72
2023/05/04 02:31:41;;;;;;;6.63;2.90;;;;;;;6.67;39.09;96006.81;4958458;28;20661;-72
2023/05/04 02:34:06;;;;;;;9.25;2.92;;;;;;;6.59;38.35;96006.66;4959013;28;20035;-72
2023/05/04 02:36:32;;;;;;;4.18;2.88;;;;;;;6.74;38.28;95999.94;4957824;28;20038;-72
2023/05/04 02:38:59;;;;;;;4.88;3.00;;;;;;;6.70;38.03;96003.84;4941898;28;20031;-72
2023/05/04 02:41:25;;;;;;;4.65;2.63;;;;;;;6.70;38.21;95995.09;4957983;28;20247;-72
2023/05/04 02:43:53;;;;;;;6.07;3.17;;;;;;;6.93;37.44;96005.31;4942397;28;20731;-71
2023/05/04 02:46:18;;;;;;;5.13;2.92;;;;;;;6.70;38.02;95998.56;4957763;28;20479;-72
2023/05/04 02:48:47;;;;;;;5.22;3.08;;;;;;;6.92;37.38;96003.63;4957913;28;20226;-72
2023/05/04 02:51:13;;;;;;;5.68;2.80;;;;;;;6.89;37.44;96002.97;4925418;28;20029;-72
2023/05/04 02:53:38;;;;;;;4.38;2.83;;;;;;;6.95;37.39;95998.06;4940371;28;20450;-71
2023/05/04 02:56:04;;;;;;;8.18;3.17;;;;;;;6.88;37.60;95998.63;4940619;28;20125;-72
2023/05/04 02:58:29;;;;;;;7.82;3.22;;;;;;;6.96;37.71;95992.63;4940515;28;20083;-72
2023/05/04 03:00:55;;;;;;;11.02;3.20;;;;;;;6.81;38.11;95999.38;4956635;28;20660;-72
2023/05/04 03:03:20;;;;;;;5.88;3.10;;;;;;;6.85;37.90;95992.81;4956793;28;20042;-72
2023/05/04 03:05:46;;;;;;;6.75;3.08;;;;;;;6.71;38.50;95996.75;4957755;28;20038;-72
2023/05/04 03:08:11;;;;;;;5.57;3.28;;;;;;;6.81;38.04;95988.78;4940723;28;20038;-72
2023/05/04 03:10:37;;;;;;;5.03;3.00;;;;;;;6.79;38.13;95988.06;4956493;28;20435;-72
2023/05/04 03:13:04;;;;;;;12.38;3.63;;;;;;;6.73;38.58;95990.34;4957599;28;20181;-72
2023/05/04 03:15:31;;;;;;;8.20;3.50;;;;;;;6.81;38.22;95991.44;4943722;28;20104;-72
2023/05/04 03:17:57;;;;;;;6.82;3.25;;;;;;;6.84;38.35;95991.97;4957527;28;20051;-72
2023/05/04 03:20:23;;;;;;;8.50;3.38;;;;;;;6.80;38.97;95984.47;4957961;28;20127;-72
2023/05/04 03:22:48;;;;;;;6.88;3.45;;;;;;;6.80;38.10;95990.59;4940175;28;20045;-72
2023/05/04 03:25:14;;;;;;;8.25;3.47;;;;;;;6.89;38.08;95979.16;4939669;28;20043;-72
2023/05/04 03:27:39;;;;;;;6.78;3.40;;;;;;;7.01;38.05;95989.53;4957512;28;20055;-72
2023/05/04 03:30:05;;;;;;;6.03;3.30;;;;;;;6.97;38.03;95986.34;4955607;28;20027;-71
2023/05/04 03:32:31;;;;;;;6.20;3.40;;;;;;;6.79;38.11;95988.91;4957592;28;20143;-72
2023/05/04 03:34:56;;;;;;;8.30;3.20;;;;;;;6.95;37.83;95985.66;4957739;28;20031;-72
2023/05/04 03:37:22;;;;;;;4.40;3.20;;;;;;;6.74;38.69;95984.06;4939641;28;20061;-72
2023/05/04 03:39:47;;;;;;;8.07;3.28;;;;;;;6.76;38.59;95986.56;4927670;28;20080;-72
2023/05/04 03:42:13;;;;;;;8.85;3.58;;;;;;;6.50;39.14;95981.91;4956510;28;20065;-72
2023/05/04 03:44:38;;;;;;;5.82;3.40;;;;;;;6.72;38.90;95986.03;4957216;28;20408;-72
2023/05/04 03:47:03;;;;;;;6.15;3.33;;;;;;;6.70;39.25;95985.31;4958003;28;20031;-72
2023/05/04 03:49:29;;;;;;;6.00;3.30;;;;;;;6.74;39.00;95981.41;4958075;28;20046;-72
2023/05/04 03:51:54;;;;;;;4.00;3.13;;;;;;;6.62;39.15;95982.56;4945401;28;20066;-72
2023/05/04 03:54:20;;;;;;;6.63;3.17;;;;;;;6.66;38.97;95983.94;4956952;28;20488;-72
2023/05/04 03:56:45;;;;;;;8.35;3.15;;;;;;;6.49;39.66;95982.88;4957036;28;20101;-72
2023/05/04 03:59:10;;;;;;;4.57;3.15;;;;;;;6.67;38.95;95984.78;4957713;28;20062;-72
2023/05/04 04:01:36;;;;;;;4.75;2.95;;;;;;;6.37;40.21;95990.13;4922952;28;20522;-72
2023/05/04 04:04:02;;;;;;;9.82;3.30;;;;;;;6.25;40.31;95987.63;4957504;28;20034;-72
2023/05/04 04:06:27;;;;;;;5.20;3.40;;;;;;;6.31;40.28;95986.25;4957554;28;20650;-72
2023/05/04 04:08:53;;;;;;;5.85;2.90;;;;;;;6.47;39.69;95985.63;4957361;28;20081;-72
2023/05/04 04:11:18;;;;;;;5.85;3.33;;;;;;;6.60;39.39;95987.19;4957752;28;20484;-72
2023/05/04 04:13:43;;;;;;;6.10;3.60;;;;;;;6.72;38.99;95987.81;4958210;28;20031;-72
2023/05/04 04:16:09;;;;;;;4.75;2.85;;;;;;;6.73;39.76;95990.34;4958021;28;20034;-72
2023/05/04 04:18:34;;;;;;;9.02;3.75;;;;;;;6.84;38.74;95980.56;4957558;28;20043;-71
2023/05/04 04:21:00;;;;;;;6.55;3.42;;;;;;;6.88;38.91;95980.09;4957155;28;20567;-72
2023/05/04 04:23:25;;;;;;;6.80;3.25;;;;;;;6.84;39.37;95983.19;4944820;28;20031;-72
2023/05/04 04:25:52;;;;;;;9.23;3.85;;;;;;;6.94;38.76;95978.69;4957236;28;20102;-72
2023/05/04 04:28:18;;;;;;;5.68;3.22;;;;;;;7.04;39.03;95975.19;4948190;28;20043;-71
2023/05/04 04:30:43;;;;;;;9.60;4.32;;;;;;;7.08;38.57;95974.75;4904697;29;20046;-72
2023/05/04 04:33:08;;;;;;;7.97;3.90;;;;;;;7.13;38.40;95969.84;4921088;28;20655;-71
2023/05/04 04:35:34;;;;;;;9.32;3.60;;;;;;;7.13;38.84;95963.69;4921382;28;20093;-71
2023/05/04 04:38:00;;;;;;;7.97;3.63;;;;;;;7.16;38.65;95971.34;4938255;28;20027;-72
2023/05/04 04:40:25;;;;;;;4.78;3.25;;;;;;;7.28;38.65;95975.44;4920971;29;20090;-72
2023/05/04 04:42:51;;;;;;;6.35;3.35;;;;;;;7.28;39.11;95972.00;4937697;28;20043;-72
2023/05/04 04:45:16;;;;;;;4.55;3.30;;;;;;;7.27;39.03;95970.31;4920241;29;20062;-72
2023/05/04 04:47:42;;;;;;;5.57;3.30;;;;;;;7.44;38.52;95957.25;4905930;29;20031;-72
2023/05/04 04:50:08;;;;;;;5.25;3.30;;;;;;;7.51;37.96;95959.13;4920516;29;20039;-72
2023/05/04 04:52:33;;;;;;;4.68;3.35;;;;;;;7.54;38.37;95964.16;4920303;29;20033;-72
2023/05/04 04:54:59;;;;;;;9.07;3.60;;;;;;;7.52;38.42;95960.78;4941525;28;20031;-72
2023/05/04 04:57:25;;;;;;;5.68;3.47;;;;;;;7.72;38.26;95959.84;4923644;29;20096;-72
2023/05/04 04:59:52;;;;;;;5.22;3.35;;;;;;;7.73;38.14;95965.00;4941296;28;20629;-72
2023/05/04 05:02:18;;;;;;;7.10;3.40;;;;;;;7.79;38.20;95959.09;4942264;28;20744;-72
2023/05/04 05:04:45;;;;;;;5.50;3.40;;;;;;;7.74;38.08;95960.50;4924135;28;20026;-72
2023/05/04 05:07:10;;;;;;;5.60;3.30;;;;;;;7.99;37.99;95960.78;4908194;29;20122;-72
2023/05/04 05:09:36;;;;;;;7.63;3.55;;;;;;;7.94;37.89;95965.69;4923655;29;20046;-72
2023/05/04 05:12:02;;;;;;;5.90;3.40;;;;;;;8.01;37.93;95964.94;4940941;29;20063;-72
2023/05/04 05:14:27;;;;;;;7.18;3.45;;;;;;;8.32;37.41;95970.81;4942548;28;20177;-72
2023/05/04 05:16:53;;;;;;;5.57;3.30;;;;;;;8.34;37.18;95969.66;4940657;28;20126;-72
2023/05/04 05:19:18;;;;;;;10.45;3.65;;;;;;;8.69;36.62;95977.66;4909203;29;20027;-72
2023/05/04 05:21:43;;;;;;;4.93;3.13;;;;;;;8.67;36.68;95972.50;4940770;28;20050;-72
2023/05/04 05:24:09;;;;;;;5.25;3.40;;;;;;;8.76;36.74;95972.53;4941088;29;20101;-72
2023/05/04 05:26:35;;;;;;;7.68;3.38;;;;;;;8.85;36.20;95978.72;4923367;29;20069;-72
2023/05/04 05:29:01;;;;;;;5.40;3.25;;;;;;;8.84;36.12;95979.72;4939209;28;20043;-72
2023/05/04 05:31:26;;;;;;;6.68;3.30;;;;;;;8.98;36.14;95976.53;4923783;29;20023;-72
2023/05/04 05:33:52;;;;;;;6.80;3.58;;;;;;;9.03;36.08;95976.88;4941647;28;20090;-72
2023/05/04 05:36:17;;;;;;;8.27;3.42;;;;;;;9.16;35.90;95981.75;4924118;29;20043;-72
2023/05/04 05:38:43;;;;;;;5.97;3.20;;;;;;;9.36;35.75;95972.66;4940349;29;20047;-72
2023/05/04 05:41:08;;;;;;;5.93;3.05;;;;;;;9.61;35.21;95983.34;4923037;29;20505;-72
2023/05/04 05:43:37;;;;;;;7.47;3.00;;;;;;;9.66;35.66;95992.50;4923511;29;20043;-72
2023/05/04 05:46:04;;;;;;;6.05;3.30;;;;;;;9.79;35.05;95986.72;4940342;28;20035;-72
2023/05/04 05:48:29;;;;;;;9.55;3.50;;;;;;;9.95;34.76;95985.06;4923505;29;20052;-72
2023/05/04 05:50:55;;;;;;;7.95;3.00;;;;;;;10.08;34.88;95988.13;4940232;28;20432;-72
2023/05/04 05:53:20;;;;;;;6.90;3.30;;;;;;;10.13;34.60;95992.09;4940125;28;20145;-72
2023/05/04 05:55:46;;;;;;;6.50;2.95;;;;;;;10.03;34.58;95989.56;4939620;29;20035;-72
2023/05/04 05:58:11;;;;;;;5.70;3.30;;;;;;;10.21;34.27;95995.56;4920658;29;20042;-72
2023/05/04 06:00:37;;;;;;;5.68;3.00;;;;;;;10.07;34.38;95994.41;4938638;29;20285;-73
2023/05/04 06:03:02;;;;;;;4.63;3.10;;;;;;;9.80;34.25;95998.19;4939247;28;20032;-72
2023/05/04 06:05:27;;;;;;;5.35;2.90;;;;;;;9.98;34.95;95984.75;4937537;28;20472;-72
2023/05/04 06:07:53;;;;;;;7.80;3.15;;;;;;;9.51;35.07;95992.31;4938714;29;20027;-72
2023/05/04 06:10:18;;;;;;;6.43;3.25;;;;;;;9.66;34.74;95992.50;4938980;28;20046;-72
2023/05/04 06:12:44;;;;;;;7.95;3.65;;;;;;;10.20;33.95;95987.78;4938468;28;20031;-72
2023/05/04 06:15:10;;;;;;;4.55;2.75;;;;;;;9.98;34.00;95993.56;4939575;28;20039;-67
2023/05/04 06:17:36;;;;;;;7.18;3.50;;;;;;;10.58;33.22;95981.94;4937037;28;20285;-67
2023/05/04 06:20:01;;;;;;;10.50;3.58;;;;;;;10.85;32.23;95982.53;4905415;29;20023;-66
2023/05/04 06:22:27;;;;;;;8.05;3.58;;;;;;;10.70;32.32;95979.72;4934432;28;20050;-67
2023/05/04 06:24:52;;;;;;;4.53;2.97;;;;;;;10.81;32.22;95990.03;4932483;28;20536;-66
2023/05/04 06:27:17;;;;;;;6.03;3.50;;;;;;;11.00;31.96;95982.66;4936244;28;20430;-66
2023/05/04 06:29:43;;;;;;;4.88;3.20;;;;;;;10.97;31.61;95981.16;4935624;28;20043;-67
2023/05/04 06:32:09;;;;;;;7.60;3.25;;;;;;;11.30;32.13;95972.25;4934721;28;20042;-67
2023/05/04 06:34:34;;;;;;;4.72;3.15;;;;;;;11.20;31.59;95976.94;4937242;28;20106;-67
2023/05/04 06:37:00;;;;;;;6.93;3.58;;;;;;;11.15;32.34;95976.63;4934805;28;20091;-67
2023/05/04 06:39:25;;;;;;;8.73;3.55;;;;;;;11.36;31.53;95965.38;4932850;28;20325;-67
2023/05/04 06:41:53;;;;;;;5.57;3.38;;;;;;;11.50;30.40;95971.81;4936602;28;20059;-67
2023/05/04 06:44:18;;;;;;;6.13;3.47;;;;;;;11.63;31.30;95971.25;4937837;28;20555;-67
2023/05/04 06:46:44;;;;;;;6.18;3.35;;;;;;;12.01;30.73;95968.63;4933671;28;20063;-67
2023/05/04 06:49:11;;;;;;;6.93;4.20;;;;;;;12.08;30.85;95978.63;4933319;28;20053;-67
2023/05/04 06:51:37;;;;;;;8.38;4.07;;;;;;;12.28;30.91;95969.09;4939081;28;20043;-66
2023/05/04 06:54:03;;;;;;;9.60;5.45;;;;;;;11.90;30.89;95972.53;4935043;28;20039;-66
2023/05/04 06:56:28;;;;;;;6.65;3.03;;;;;;;12.67;30.10;95959.25;4932974;28;20443;-66
2023/05/04 06:58:54;;;;;;;5.95;3.80;;;;;;;13.01;29.65;95962.41;4933362;28;20166;-67
2023/05/04 07:01:19;;;;;;;8.88;3.42;;;;;;;13.01;29.57;95966.91;4936428;28;20035;-67
2023/05/04 07:03:45;;;;;;;4.68;3.15;;;;;;;13.49;28.93;95963.00;4938268;29;20031;-67
2023/05/04 07:06:10;;;;;;;6.53;3.55;;;;;;;13.59;28.91;95966.19;4935447;29;20058;-67
2023/05/04 07:08:36;;;;;;;8.35;3.40;;;;;;;13.31;29.16;95970.41;4934509;28;20042;-67
2023/05/04 07:11:01;;;;;;;13.63;7.30;;;;;;;13.61;29.01;95968.66;4937220;28;20030;-67
2023/05/04 07:13:27;;;;;;;6.53;3.53;;;;;;;13.80;28.12;95953.84;4934779;28;20047;-66
2023/05/04 07:15:52;;;;;;;8.65;4.55;;;;;;;13.55;29.11;95967.56;4936897;28;20024;-67
2023/05/04 07:18:18;;;;;;;14.00;9.15;;;;;;;13.81;28.71;95960.88;4936290;28;20045;-67
2023/05/04 07:20:43;;;;;;;17.13;10.38;;;;;;;13.54;28.95;95957.91;4935704;28;20062;-67
2023/05/04 07:23:08;;;;;;;8.95;3.88;;;;;;;14.32;28.10;95957.22;4937692;28;20031;-66
2023/05/04 07:25:34;;;;;;;12.68;8.35;;;;;;;14.04;28.67;95954.53;4937388;28;20039;-66
2023/05/04 07:27:59;;;;;;;8.60;4.07;;;;;;;14.72;27.84;95955.84;4944487;28;20082;-67
2023/05/04 07:30:25;;;;;;;7.50;4.00;;;;;;;15.03;27.99;95949.25;4953530;28;20078;-66
2023/05/04 07:32:50;;;;;;;8.68;3.60;;;;;;;15.03;27.55;95954.63;4939985;28;20027;-67
2023/05/04 07:35:16;;;;;;;6.93;3.70;;;;;;;14.73;27.68;95949.50;4957011;28;20428;-67
2023/05/04 07:37:41;;;;;;;12.55;7.68;;;;;;;15.16;27.39;95955.75;4946023;28;20451;-67
2023/05/04 07:40:07;;;;;;;12.13;8.82;;;;;;;14.96;27.61;95951.91;4955061;28;20038;-67
2023/05/04 07:42:33;;;;;;;16.70;10.75;;;;;;;15.31;27.22;95952.91;4952735;28;20407;-67
2023/05/04 07:44:58;;;;;;;12.43;7.35;;;;;;;15.43;26.96;95953.97;4956855;28;20051;-68
2023/05/04 07:47:24;;;;;;;12.45;4.07;;;;;;;15.63;26.61;95955.13;4957259;28;20109;-68
2023/05/04 07:49:49;;;;;;;8.02;3.78;;;;;;;15.73;26.19;95953.69;4957518;28;20566;-67
2023/05/04 07:52:15;;;;;;;10.77;4.47;;;;;;;15.67;26.22;95951.81;4955583;28;20297;-67
2023/05/04 07:54:40;;;;;;;19.00;10.43;;;;;;;15.41;27.27;95948.00;4956371;28;20066;-66
2023/05/04 07:57:06;;;;;;;7.60;5.05;;;;;;;15.77;27.14;95935.31;4956033;28;20435;-67
2023/05/04 07:59:31;;;;;;;5.45;3.35;;;;;;;15.86;27.20;95938.63;4957625;28;20061;-67
2023/05/04 08:01:56;;;;;;;10.45;5.90;;;;;;;15.90;26.54;95949.81;4956956;28;20084;-67
2023/05/04 08:04:22;;;;;;;6.47;3.42;;;;;;;16.21;26.63;95957.25;4955200;28;20049;-68
2023/05/04 08:06:48;;;;;;;7.35;3.85;;;;;;;16.17;25.76;95950.66;4955331;28;20343;-67
2023/05/04 08:09:14;;;;;;;11.05;7.30;;;;;;;16.15;26.29;95962.63;4956343;28;20031;-67
2023/05/04 08:11:40;;;;;;;11.25;7.45;;;;;;;16.40;26.25;95957.50;4956752;28;20034;-67
2023/05/04 08:14:05;;;;;;;6.13;3.85;;;;;;;16.57;25.75;95951.72;4951965;28;20542;-67
2023/05/04 08:16:31;;;;;;;7.95;3.95;;;;;;;16.43;25.67;95945.53;4953633;28;20031;-67
2023/05/04 08:18:56;;;;;;;6.00;4.07;;;;;;;16.59;24.82;95952.34;4955908;28;20023;-67
2023/05/04 08:21:22;;;;;;;5.60;4.20;;;;;;;16.53;25.27;95948.63;4954782;28;20347;-67
2023/05/04 08:23:48;;;;;;;8.38;4.80;;;;;;;16.12;24.48;95956.63;4955181;28;20492;-67
2023/05/04 08:26:14;;;;;;;10.15;4.45;;;;;;;15.84;25.46;95954.94;4959022;28;20038;-68
2023/05/04 08:28:39;;;;;;;7.10;3.65;;;;;;;16.29;25.21;95947.34;4941443;28;20140;-68
2023/05/04 08:31:05;;;;;;;5.20;3.53;;;;;;;16.27;25.28;95947.56;4937399;28;20361;-67
2023/05/04 08:33:31;;;;;;;7.07;3.97;;;;;;;16.38;25.13;95952.34;4938498;28;20039;-67
2023/05/04 08:35:57;;;;;;;12.68;8.18;;;;;;;16.34;24.53;95960.97;4940735;28;20118;-67
2023/05/04 08:38:22;;;;;;;5.63;3.42;;;;;;;16.61;25.20;95947.56;4938983;28;20476;-67
2023/05/04 08:40:48;;;;;;;10.20;7.00;;;;;;;16.53;24.70;95943.25;4940321;28;20031;-67
2023/05/04 08:43:13;;;;;;;14.00;8.15;;;;;;;16.35;25.14;95939.31;4939644;28;20035;-67
2023/05/04 08:45:39;;;;;;;7.35;4.30;;;;;;;16.57;25.46;95938.28;4920043;29;20098;-68
2023/05/04 08:48:06;;;;;;;12.23;7.30;;;;;;;16.37;24.63;95947.19;4940498;29;20042;-67
2023/05/04 08:50:32;;;;;;;11.93;7.13;;;;;;;16.72;25.01;95944.25;4940325;29;20253;-67
2023/05/04 08:52:59;;;;;;;10.40;4.80;;;;;;;16.75;24.37;95940.31;4937155;28;20046;-67
2023/05/04 08:55:25;;;;;;;7.10;3.67;;;;;;;17.06;24.57;95940.66;4922209;29;20073;-67
2023/05/04 08:57:50;;;;;;;12.55;8.30;;;;;;;16.05;23.30;95933.50;4920655;28;20047;-67
2023/05/04 09:00:16;;;;;;;9.63;6.72;;;;;;;16.80;23.76;95940.53;4939579;28;20119;-67
2023/05/04 09:02:42;;;;;;;10.95;6.07;;;;;;;16.49;24.57;95937.44;4935407;28;20078;-67
2023/05/04 09:05:09;;;;;;;9.82;7.10;;;;;;;16.57;24.54;95938.28;4936677;28;20395;-67
2023/05/04 09:07:34;;;;;;;11.00;7.50;;;;;;;17.11;24.07;95924.72;4940195;28;20608;-67
2023/05/04 09:10:00;;;;;;;12.52;8.98;;;;;;;17.55;24.52;95927.66;4935744;28;20246;-67
2023/05/04 09:12:26;;;;;;;11.45;8.23;;;;;;;17.64;24.47;95926.34;4906609;28;20214;-67
2023/05/04 09:14:51;;;;;;;11.48;7.38;;;;;;;17.98;23.11;95917.28;4937059;28;20047;-67
2023/05/04 09:17:24;;;;;;;8.40;5.75;;;;;;;17.92;22.00;95916.28;4936834;28;20039;-67
2023/05/04 09:19:59;;;;;;;13.32;9.18;;;;;;;18.36;23.10;95916.31;4919984;29;20284;-68
2023/05/04 09:22:25;;;;;;;8.05;4.70;;;;;;;18.75;21.93;95915.38;4936784;28;20528;-67
2023/05/04 09:24:50;;;;;;;5.95;4.28;;;;;;;18.88;21.57;95923.34;4938786;28;20019;-68
2023/05/04 09:27:18;;;;;;;5.20;2.65;;;;;;;19.04;21.88;95931.91;4940490;28;20086;-67
2023/05/04 09:29:52;;;;;;;14.65;10.05;;;;;;;18.94;21.44;95930.53;4936376;28;20040;-67
2023/05/04 09:32:19;;;;;;;9.68;6.00;;;;;;;18.97;20.68;95931.13;4939505;28;20043;-68
2023/05/04 09:34:49;;;;;;;4.95;2.70;;;;;;;19.42;21.33;95932.72;4939990;28;20047;-67
2023/05/04 09:37:14;;;;;;;4.68;3.00;;;;;;;19.53;20.69;95921.16;4935742;28;20046;-68
2023/05/04 09:39:52;;;;;;;6.03;3.05;;;;;;;19.57;20.62;95919.63;4940700;28;20031;-67
2023/05/04 09:42:19;;;;;;;6.18;3.72;;;;;;;19.53;21.14;95923.84;4938433;29;20628;-67
2023/05/04 09:44:45;;;;;;;5.57;3.83;;;;;;;19.83;19.53;95914.91;4938868;28;20043;-67
2023/05/04 09:47:10;;;;;;;3.75;2.28;;;;;;;20.17;20.87;95919.84;4938150;28;20078;-68
2023/05/04 09:49:37;;;;;;;6.38;2.83;;;;;;;20.28;19.61;95922.78;4922643;29;20376;-68
2023/05/04 09:52:04;;;;;;;5.15;2.60;;;;;;;20.35;19.81;95916.22;4934116;28;20445;-68
2023/05/04 09:54:34;;;;;;;9.13;2.90;;;;;;;20.12;20.18;95916.19;4936820;29;20094;-68
2023/05/04 09:57:10;;;;;;;8.90;5.90;;;;;;;20.05;19.34;95914.41;4920140;28;20123;-68
2023/05/04 09:59:36;;;;;;;4.53;2.83;;;;;;;20.38;19.54;95919.50;4936928;28;20307;-69
2023/05/04 10:02:01;;;;;;;4.93;2.90;;;;;;;20.10;20.52;95906.41;4904794;29;20051;-68
2023/05/04 10:04:27;;;;;;;8.90;4.75;;;;;;;20.12;20.43;95908.88;4919595;29;20320;-68
2023/05/04 10:06:53;;;;;;;8.50;4.28;;;;;;;20.55;20.94;95919.63;4920342;29;20575;-68
2023/05/04 10:09:19;;;;;;;6.88;3.25;;;;;;;20.64;19.15;95914.72;4921115;29;20682;-67
2023/05/04 10:11:44;;;;;;;9.35;3.70;;;;;;;20.35;19.36;95910.81;4937789;28;20039;-67
2023/05/04 10:14:10;;;;;;;4.18;2.65;;;;;;;20.59;18.95;95916.22;4937913;28;20043;-67
2023/05/04 10:16:37;;;;;;;9.43;5.57;;;;;;;20.58;19.10;95911.88;4937161;28;20297;-67
2023/05/04 10:19:06;;;;;;;8.43;3.05;;;;;;;20.66;18.30;95910.72;4921105;29;20031;-67
2023/05/04 10:21:42;;;;;;;13.10;8.77;;;;;;;20.30;19.88;95913.41;4921238;29;20051;-67
2023/05/04 10:24:23;;;;;;;9.32;5.55;;;;;;;20.88;19.36;95899.28;4904461;29;20027;-68
2023/05/04 10:27:04;;;;;;;10.68;6.35;;;;;;;21.07;19.61;95907.28;4937245;28;20067;-67
2023/05/04 10:29:31;;;;;;;10.95;8.95;;;;;;;20.31;18.94;95889.88;4960143;28;20122;-67
2023/05/04 10:31:58;;;;;;;5.03;2.83;;;;;;;20.69;18.23;95885.06;4938965;28;20042;-67
2023/05/04 10:34:33;;;;;;;5.28;2.33;;;;;;;21.51;18.62;95879.72;4963553;28;20566;-68
2023/05/04 10:36:59;;;;;;;3.53;2.58;;;;;;;20.70;17.33;95882.13;4961590;28;20678;-67
2023/05/04 10:39:28;;;;;;;6.63;3.17;;;;;;;20.84;17.90;95877.28;4950309;28;20128;-67
2023/05/04 10:41:58;;;;;;;7.68;5.53;;;;;;;20.59;17.59;95869.41;4962111;28;20050;-68
2023/05/04 10:44:23;;;;;;;2.95;2.30;;;;;;;20.69;18.93;95858.84;4964977;28;20506;-68
2023/05/04 10:47:07;;;;;;;4.40;2.70;;;;;;;20.38;17.68;95860.00;4957679;28;20046;-67
2023/05/04 10:49:33;;;;;;;11.68;9.77;;;;;;;20.67;18.77;95854.75;4960463;28;20048;-67
2023/05/04 10:52:12;;;;;;;12.30;8.93;;;;;;;20.73;18.50;95849.22;4958178;28;20595;-67
2023/05/04 10:54:38;;;;;;;8.45;2.58;;;;;;;21.02;18.46;95853.84;4954004;28;20676;-68
2023/05/04 10:57:04;;;;;;;7.10;3.50;;;;;;;21.34;18.40;95842.59;4962618;28;20118;-72
2023/05/04 10:59:30;;;;;;;8.25;3.65;;;;;;;20.41;17.38;95836.06;4941019;28;20019;-72
2023/05/04 11:01:55;;;;;;;7.47;2.85;;;;;;;20.77;16.78;95841.44;4905610;28;20420;-73
2023/05/04 11:04:21;;;;;;;8.30;5.13;;;;;;;20.88;17.78;95839.78;4946668;28;20038;-72
2023/05/04 11:07:07;;;;;;;13.57;9.65;;;;;;;20.51;19.63;95835.47;4914520;28;20078;-72
2023/05/04 11:09:36;;;;;;;17.67;13.27;;;;;;;20.91;19.22;95827.66;4935349;28;20578;-72
2023/05/04 11:12:02;;;;;;;9.52;2.80;;;;;;;21.20;18.63;95817.66;4938547;28;20022;-72
2023/05/04 11:14:27;;;;;;;8.93;5.40;;;;;;;21.27;19.59;95819.41;4967650;28;20050;-72
2023/05/04 11:17:14;;;;;;;4.53;2.75;;;;;;;21.64;19.29;95825.25;4970696;28;20035;-72
2023/05/04 11:19:49;;;;;;;;;;;;;;;21.49;17.51;95816.84;4971253;28;20478;-72
2023/05/04 11:22:16;;;;;;;5.25;3.22;;;;;;;21.89;20.15;95817.81;4969354;28;20017;-73
2023/05/04 11:24:43;;;;;;;5.72;3.10;;;;;;;22.02;18.38;95816.66;4926720;28;20439;-72
2023/05/04 11:27:28;;;;;;;5.97;2.65;;;;;;;21.61;18.49;95819.47;4962091;28;20476;-72
2023/05/04 11:30:01;;;;;;;14.55;8.40;;;;;;;21.39;18.96;95809.38;4926501;28;20330;-72
2023/05/04 11:32:36;;;;;;;5.88;2.63;;;;;;;22.30;19.43;95814.94;4921184;28;20641;-73
2023/05/04 11:35:03;;;;;;;5.45;3.30;;;;;;;22.13;18.36;95804.91;4920931;29;20129;-72
2023/05/04 11:37:28;;;;;;;7.80;5.72;;;;;;;22.64;17.15;95804.00;4927001;28;20047;-72